createdAt,value
2018-09-26T00:00:32.536Z,1.92
2018-09-26T00:03:13.197Z,2.65
2018-09-26T00:05:41.802Z,2.08
2018-09-26T00:08:10.351Z,1.92
2018-09-26T00:10:38.855Z,2.00
2018-09-26T00:13:13.733Z,2.02
2018-09-26T00:15:42.259Z,2.25
2018-09-26T00:18:10.749Z,2.22
2018-09-26T00:20:39.317Z,2.50
2018-09-26T00:23:08.081Z,2.20
2018-09-26T00:25:36.600Z,2.02
2018-09-26T00:28:05.163Z,2.00
2018-09-26T00:30:33.692Z,1.67
2018-09-26T00:33:02.174Z,1.82
2018-09-26T00:35:31.023Z,2.20
2018-09-26T00:37:59.540Z,1.70
2018-09-26T00:40:28.051Z,1.70
2018-09-26T00:42:56.634Z,1.80
2018-09-26T00:45:25.116Z,1.87
2018-09-26T00:47:53.638Z,2.20
2018-09-26T00:50:22.211Z,2.12
2018-09-26T00:52:50.748Z,1.52
2018-09-26T00:55:19.229Z,2.05
2018-09-26T00:57:47.729Z,1.82
2018-09-26T01:00:16.265Z,2.20
2018-09-26T01:02:44.755Z,3.55
2018-09-26T01:05:13.305Z,1.95
2018-09-26T01:07:41.818Z,2.00
2018-09-26T01:10:10.354Z,2.40
2018-09-26T01:12:38.922Z,1.50
2018-09-26T01:15:07.496Z,2.00
2018-09-26T01:17:36.013Z,1.50
2018-09-26T01:20:04.547Z,1.62
2018-09-26T01:22:33.047Z,2.50
2018-09-26T01:25:01.582Z,2.08
2018-09-26T01:27:33.032Z,2.12
2018-09-26T01:30:02.824Z,2.17
2018-09-26T01:32:31.335Z,1.75
2018-09-26T01:34:59.883Z,1.92
2018-09-26T01:37:28.431Z,1.60
2018-09-26T01:39:57.256Z,2.25
2018-09-26T01:42:25.812Z,1.65
2018-09-26T01:44:54.320Z,2.25
2018-09-26T01:47:22.859Z,1.82
2018-09-26T01:49:51.339Z,1.70
2018-09-26T01:52:19.811Z,2.25
2018-09-26T01:54:48.353Z,2.33
2018-09-26T01:57:16.917Z,1.20
2018-09-26T01:59:45.476Z,2.00
2018-09-26T02:02:13.975Z,1.98
2018-09-26T02:04:42.479Z,2.20
2018-09-26T02:07:10.971Z,1.85
2018-09-26T02:09:39.505Z,1.87
2018-09-26T02:12:08.360Z,2.10
2018-09-26T02:14:36.854Z,1.85
2018-09-26T02:17:05.438Z,2.10
2018-09-26T02:19:33.977Z,1.90
2018-09-26T02:22:02.533Z,1.30
2018-09-26T02:24:31.060Z,1.72
2018-09-26T02:26:59.591Z,2.30
2018-09-26T02:29:28.089Z,1.80
2018-09-26T02:31:56.632Z,2.00
2018-09-26T02:34:25.134Z,1.77
2018-09-26T02:36:53.652Z,2.10
2018-09-26T02:39:22.160Z,2.10
2018-09-26T02:41:50.717Z,1.60
2018-09-26T02:44:19.238Z,1.75
2018-09-26T02:46:49.895Z,1.95
2018-09-26T02:49:18.402Z,2.08
2018-09-26T02:51:46.953Z,1.80
2018-09-26T02:54:15.456Z,2.05
2018-09-26T02:56:43.988Z,2.45
2018-09-26T02:59:12.516Z,2.10
2018-09-26T03:01:41.025Z,2.17
2018-09-26T03:04:09.549Z,1.77
2018-09-26T03:06:38.062Z,1.70
2018-09-26T03:09:07.968Z,1.40
2018-09-26T03:11:36.481Z,1.87
2018-09-26T03:14:05.038Z,2.10
2018-09-26T03:16:33.604Z,2.58
2018-09-26T03:19:02.149Z,2.58
2018-09-26T03:21:30.792Z,2.08
2018-09-26T03:23:59.308Z,2.27
2018-09-26T03:26:27.824Z,2.80
2018-09-26T03:28:56.332Z,1.85
2018-09-26T03:31:24.841Z,2.27
2018-09-26T03:33:53.396Z,1.70
2018-09-26T03:36:21.937Z,1.98
2018-09-26T03:38:50.477Z,1.85
2018-09-26T03:41:18.988Z,1.90
2018-09-26T03:43:47.538Z,2.35
2018-09-26T03:46:16.067Z,2.22
2018-09-26T03:48:44.555Z,2.30
2018-09-26T03:51:13.071Z,2.30
2018-09-26T03:53:41.604Z,2.67
2018-09-26T03:56:10.096Z,2.20
2018-09-26T03:58:38.633Z,1.82
2018-09-26T04:01:07.204Z,2.47
2018-09-26T04:03:35.700Z,2.00
2018-09-26T04:06:04.324Z,2.72
2018-09-26T04:08:32.831Z,1.77
2018-09-26T04:11:01.365Z,1.98
2018-09-26T04:13:29.906Z,2.20
2018-09-26T04:15:58.396Z,2.22
2018-09-26T04:18:27.419Z,2.00
2018-09-26T04:20:56.510Z,2.40
2018-09-26T04:23:25.053Z,2.25
2018-09-26T04:25:53.578Z,1.95
2018-09-26T04:28:22.115Z,2.37
2018-09-26T04:30:50.912Z,2.47
2018-09-26T04:33:19.549Z,1.77
2018-09-26T04:35:47.972Z,2.10
2018-09-26T04:38:16.483Z,1.77
2018-09-26T04:40:44.995Z,2.00
2018-09-26T04:43:13.567Z,2.33
2018-09-26T04:45:43.612Z,2.08
2018-09-26T04:48:12.211Z,2.05
2018-09-26T04:50:40.724Z,2.08
2018-09-26T04:53:09.223Z,2.00
2018-09-26T04:55:37.772Z,2.40
2018-09-26T04:58:06.545Z,2.50
2018-09-26T05:00:35.031Z,1.95
2018-09-26T05:03:03.553Z,2.40
2018-09-26T05:05:32.028Z,2.17
2018-09-26T05:08:00.577Z,3.00
2018-09-26T05:10:29.085Z,2.00
2018-09-26T05:12:57.649Z,2.42
2018-09-26T05:15:26.216Z,2.12
2018-09-26T05:17:56.249Z,2.50
2018-09-26T05:20:26.030Z,2.30
2018-09-26T05:22:55.681Z,2.85
2018-09-26T05:25:25.206Z,2.70
2018-09-26T05:27:58.636Z,2.87
2018-09-26T05:30:28.136Z,2.17
2018-09-26T05:32:59.598Z,2.42
2018-09-26T05:35:29.716Z,2.95
2018-09-26T05:38:01.519Z,2.70
2018-09-26T05:40:31.657Z,2.15
2018-09-26T05:43:01.318Z,2.72
2018-09-26T05:45:29.842Z,2.05
2018-09-26T05:47:58.373Z,2.67
2018-09-26T05:50:26.875Z,2.42
2018-09-26T05:52:55.425Z,1.95
2018-09-26T05:55:23.955Z,2.70
2018-09-26T05:57:52.488Z,2.10
2018-09-26T06:00:21.019Z,1.95
2018-09-26T06:02:49.536Z,2.20
2018-09-26T06:05:18.128Z,2.17
2018-09-26T06:07:46.598Z,2.15
2018-09-26T06:10:15.132Z,1.85
2018-09-26T06:12:43.710Z,1.90
2018-09-26T06:15:12.217Z,1.98
2018-09-26T06:17:40.786Z,1.65
2018-09-26T06:20:09.324Z,2.62
2018-09-26T06:22:37.858Z,3.27
2018-09-26T06:25:06.431Z,3.42
2018-09-26T06:27:34.948Z,2.30
2018-09-26T06:30:03.552Z,3.00
2018-09-26T06:32:32.074Z,2.77
2018-09-26T06:35:00.634Z,4.42
2018-09-26T06:37:29.152Z,5.50
2018-09-26T06:39:57.647Z,2.30
2018-09-26T06:42:26.177Z,2.20
2018-09-26T06:44:54.692Z,2.65
2018-09-26T06:47:23.228Z,2.50
2018-09-26T06:49:51.742Z,2.72
2018-09-26T06:52:20.256Z,2.80
2018-09-26T06:54:48.804Z,2.47
2018-09-26T06:57:17.361Z,2.08
2018-09-26T06:59:45.914Z,2.50
2018-09-26T07:02:14.520Z,2.92
2018-09-26T07:04:43.018Z,2.30
2018-09-26T07:07:11.562Z,1.67
2018-09-26T07:09:40.078Z,2.10
2018-09-26T07:12:08.603Z,1.60
2018-09-26T07:14:37.133Z,1.50
2018-09-26T07:17:05.708Z,1.70
2018-09-26T07:19:34.230Z,1.63
2018-09-26T07:22:02.767Z,1.50
2018-09-26T07:24:31.282Z,1.70
2018-09-26T07:26:59.836Z,2.23
2018-09-26T07:29:28.358Z,1.83
2018-09-26T07:31:56.883Z,1.40
2018-09-26T07:34:30.632Z,1.50
2018-09-26T07:36:59.536Z,1.50
2018-09-26T07:39:28.027Z,2.50
2018-09-26T07:41:56.547Z,2.53
2018-09-26T07:44:25.056Z,1.97
2018-09-26T07:46:53.643Z,1.43
2018-09-26T07:49:22.259Z,3.80
2018-09-26T07:51:50.810Z,2.27
2018-09-26T07:54:19.534Z,1.80
2018-09-26T07:56:48.527Z,2.07
2018-09-26T07:59:17.044Z,2.40
2018-09-26T08:01:45.817Z,1.67
2018-09-26T08:04:14.357Z,1.90
2018-09-26T08:06:43.749Z,2.10
2018-09-26T08:09:12.491Z,1.70
2018-09-26T08:11:41.080Z,2.00
2018-09-26T08:14:09.540Z,2.20
2018-09-26T08:16:38.102Z,1.90
2018-09-26T08:19:06.606Z,1.97
2018-09-26T08:21:35.186Z,1.70
2018-09-26T08:24:03.811Z,1.50
2018-09-26T08:26:32.244Z,1.70
2018-09-26T08:29:00.768Z,1.90
2018-09-26T08:31:29.288Z,2.47
2018-09-26T08:33:57.833Z,1.50
2018-09-26T08:36:26.347Z,2.07
2018-09-26T08:38:54.868Z,2.00
2018-09-26T08:41:23.390Z,2.50
2018-09-26T08:43:51.909Z,2.43
2018-09-26T08:46:20.427Z,2.60
2018-09-26T08:48:48.949Z,1.80
2018-09-26T08:51:17.576Z,2.50
2018-09-26T08:53:46.179Z,2.10
2018-09-26T08:56:14.699Z,2.17
2018-09-26T08:58:43.221Z,2.10
2018-09-26T09:01:16.982Z,2.17
2018-09-26T09:03:45.485Z,1.60
2018-09-26T09:06:14.107Z,2.30
2018-09-26T09:08:42.597Z,2.27
2018-09-26T09:11:11.135Z,2.53
2018-09-26T09:13:39.647Z,1.70
2018-09-26T09:16:08.175Z,1.97
2018-09-26T09:18:36.690Z,1.90
2018-09-26T09:21:05.245Z,2.10
2018-09-26T09:23:33.758Z,1.43
2018-09-26T09:26:02.369Z,1.60
2018-09-26T09:28:30.921Z,1.27
2018-09-26T09:30:59.431Z,1.57
2018-09-26T09:33:27.959Z,1.40
2018-09-26T09:35:56.516Z,1.13
2018-09-26T09:38:25.018Z,1.60
2018-09-26T09:40:53.557Z,1.03
2018-09-26T09:43:22.703Z,1.50
2018-09-26T09:45:51.253Z,1.50
2018-09-26T09:48:19.807Z,1.73
2018-09-26T09:50:48.289Z,1.13
2018-09-26T09:53:19.088Z,1.60
2018-09-26T09:55:49.741Z,1.60
2018-09-26T09:58:18.307Z,1.20
2018-09-26T10:00:52.011Z,1.10
2018-09-26T10:03:20.579Z,1.10
2018-09-26T10:05:49.124Z,1.43
2018-09-26T10:08:17.673Z,2.10
2018-09-26T10:10:46.219Z,1.30
2018-09-26T10:13:14.732Z,1.23
2018-09-26T10:15:43.532Z,0.90
2018-09-26T10:18:12.084Z,1.40
2018-09-26T10:20:40.611Z,1.40
2018-09-26T10:23:09.131Z,1.50
2018-09-26T10:25:37.652Z,1.63
2018-09-26T10:28:06.400Z,1.40
2018-09-26T10:30:34.941Z,1.30
2018-09-26T10:33:03.464Z,1.77
2018-09-26T10:35:32.040Z,1.57
2018-09-26T10:38:00.593Z,1.70
2018-09-26T10:40:29.484Z,1.53
2018-09-26T10:42:58.021Z,1.10
2018-09-26T10:45:26.570Z,1.57
2018-09-26T10:47:55.081Z,1.40
2018-09-26T10:50:23.630Z,1.20
2018-09-26T10:52:52.219Z,1.60
2018-09-26T10:55:20.725Z,1.37
2018-09-26T10:57:49.238Z,1.47
2018-09-26T11:00:17.822Z,1.27
2018-09-26T11:02:46.337Z,1.27
2018-09-26T11:05:14.911Z,1.40
2018-09-26T11:07:43.395Z,1.00
2018-09-26T11:10:11.988Z,1.10
2018-09-26T11:12:40.514Z,1.10
2018-09-26T11:15:09.048Z,1.40
2018-09-26T11:17:37.515Z,1.00
2018-09-26T11:20:06.612Z,0.90
2018-09-26T11:22:35.127Z,1.07
2018-09-26T11:25:03.704Z,1.07
2018-09-26T11:27:32.172Z,1.03
2018-09-26T11:30:00.682Z,1.37
2018-09-26T11:32:29.176Z,0.93
2018-09-26T11:34:57.914Z,1.10
2018-09-26T11:37:26.453Z,2.00
2018-09-26T11:39:54.939Z,0.90
2018-09-26T11:42:23.444Z,1.20
2018-09-26T11:44:52.032Z,1.27
2018-09-26T11:47:20.487Z,1.93
2018-09-26T11:49:49.020Z,1.10
2018-09-26T11:52:17.587Z,1.10
2018-09-26T11:54:46.077Z,1.10
2018-09-26T11:57:14.595Z,1.10
2018-09-26T11:59:43.093Z,1.00
2018-09-26T12:02:11.677Z,0.90
2018-09-26T12:04:40.141Z,1.20
2018-09-26T12:07:08.719Z,1.27
2018-09-26T12:09:37.249Z,0.90
2018-09-26T12:12:05.772Z,1.00
2018-09-26T12:14:34.305Z,1.00
2018-09-26T12:17:02.824Z,1.23
2018-09-26T12:19:31.372Z,1.20
2018-09-26T12:22:00.809Z,1.43
2018-09-26T12:24:29.362Z,1.00
2018-09-26T12:26:57.907Z,1.00
2018-09-26T12:29:26.419Z,1.23
2018-09-26T12:31:54.935Z,0.90
2018-09-26T12:34:23.459Z,0.90
2018-09-26T12:36:51.960Z,0.90
2018-09-26T12:39:20.512Z,1.10
2018-09-26T12:41:49.024Z,1.37
2018-09-26T12:44:17.540Z,1.00
2018-09-26T12:46:46.117Z,0.83
2018-09-26T12:49:14.619Z,1.20
2018-09-26T12:51:43.119Z,0.77
2018-09-26T12:54:11.647Z,1.63
2018-09-26T12:56:40.146Z,1.10
2018-09-26T12:59:08.654Z,1.30
2018-09-26T13:01:37.140Z,1.30
2018-09-26T13:04:05.675Z,1.40
2018-09-26T13:06:34.163Z,1.40
2018-09-26T13:09:02.771Z,1.37
2018-09-26T13:11:31.252Z,1.20
2018-09-26T13:13:59.771Z,1.20
2018-09-26T13:16:28.292Z,1.13
2018-09-26T13:18:56.843Z,1.73
2018-09-26T13:21:25.323Z,1.30
2018-09-26T13:23:53.815Z,1.30
2018-09-26T13:26:22.379Z,1.20
2018-09-26T13:28:50.852Z,1.10
2018-09-26T13:31:19.340Z,1.20
2018-09-26T13:33:47.859Z,1.27
2018-09-26T13:36:16.348Z,1.10
2018-09-26T13:38:44.836Z,1.40
2018-09-26T13:41:13.386Z,1.40
2018-09-26T13:43:42.336Z,1.10
2018-09-26T13:46:10.995Z,1.10
2018-09-26T13:48:39.340Z,1.47
2018-09-26T13:51:07.966Z,1.63
2018-09-26T13:53:36.453Z,1.30
2018-09-26T13:56:04.938Z,1.33
2018-09-26T13:58:33.439Z,1.43
2018-09-26T14:01:01.913Z,1.00
2018-09-26T14:03:30.424Z,1.43
2018-09-26T14:05:59.002Z,1.43
2018-09-26T14:08:27.688Z,1.10
2018-09-26T14:10:56.170Z,1.10
2018-09-26T14:13:24.644Z,1.00
2018-09-26T14:15:53.119Z,1.23
2018-09-26T14:18:21.698Z,1.20
2018-09-26T14:20:50.148Z,1.10
2018-09-26T14:23:18.648Z,1.23
2018-09-26T14:25:47.151Z,0.83
2018-09-26T14:28:15.643Z,1.10
2018-09-26T14:30:44.238Z,1.23
2018-09-26T14:33:12.700Z,1.17
2018-09-26T14:35:41.257Z,0.73
2018-09-26T14:38:09.770Z,1.10
2018-09-26T14:40:38.249Z,0.87
2018-09-26T14:43:07.020Z,0.90
2018-09-26T14:45:35.528Z,0.90
2018-09-26T14:48:04.108Z,0.80
2018-09-26T14:50:32.643Z,1.10
2018-09-26T14:53:01.128Z,1.20
2018-09-26T14:55:29.668Z,1.00
2018-09-26T14:57:58.242Z,1.03
2018-09-26T15:00:26.876Z,1.03
2018-09-26T15:02:55.286Z,1.17
2018-09-26T15:05:23.785Z,1.00
2018-09-26T15:07:52.288Z,1.40
2018-09-26T15:10:20.831Z,1.10
2018-09-26T15:12:49.352Z,1.50
2018-09-26T15:15:17.824Z,1.17
2018-09-26T15:17:46.328Z,1.33
2018-09-26T15:20:14.933Z,0.90
2018-09-26T15:22:43.338Z,0.90
2018-09-26T15:25:11.828Z,1.30
2018-09-26T15:27:40.426Z,1.20
2018-09-26T15:30:08.967Z,0.70
2018-09-26T15:32:37.580Z,1.20
2018-09-26T15:35:06.216Z,0.90
2018-09-26T15:37:34.903Z,1.10
2018-09-26T15:40:03.546Z,0.90
2018-09-26T15:42:33.956Z,1.17
2018-09-26T15:45:02.585Z,1.13
2018-09-26T15:47:31.129Z,1.50
2018-09-26T15:49:59.688Z,1.10
2018-09-26T15:52:28.180Z,1.07
2018-09-26T15:54:56.692Z,1.00
2018-09-26T15:57:25.186Z,1.07
2018-09-26T15:59:53.684Z,1.00
2018-09-26T16:02:22.291Z,1.40
2018-09-26T16:04:50.766Z,1.03
2018-09-26T16:07:19.264Z,1.10
2018-09-26T16:09:47.771Z,1.47
2018-09-26T16:12:16.347Z,1.53
2018-09-26T16:14:44.881Z,1.13
2018-09-26T16:17:13.411Z,1.47
2018-09-26T16:19:41.915Z,1.30
2018-09-26T16:22:10.494Z,1.47
2018-09-26T16:24:38.975Z,1.30
2018-09-26T16:27:07.586Z,1.33
2018-09-26T16:29:36.106Z,1.27
2018-09-26T16:32:04.632Z,1.10
2018-09-26T16:34:33.976Z,1.00
2018-09-26T16:37:02.507Z,1.20
2018-09-26T16:39:31.101Z,2.50
2018-09-26T16:41:59.643Z,1.30
2018-09-26T16:44:28.127Z,1.10
2018-09-26T16:46:56.859Z,1.50
2018-09-26T16:49:25.385Z,1.00
2018-09-26T16:51:53.900Z,1.33
2018-09-26T16:54:22.602Z,1.53
2018-09-26T16:56:50.964Z,1.27
2018-09-26T16:59:19.501Z,1.60
2018-09-26T17:01:47.971Z,1.10
2018-09-26T17:04:16.476Z,1.10
2018-09-26T17:06:45.604Z,1.20
2018-09-26T17:09:14.084Z,1.13
2018-09-26T17:11:42.638Z,1.07
2018-09-26T17:14:11.523Z,1.10
2018-09-26T17:16:40.057Z,1.40
2018-09-26T17:19:08.821Z,1.03
2018-09-26T17:21:37.300Z,1.30
2018-09-26T17:24:05.955Z,1.23
2018-09-26T17:26:34.459Z,1.50
2018-09-26T17:29:03.007Z,1.13
2018-09-26T17:31:31.520Z,1.77
2018-09-26T17:33:59.991Z,1.93
2018-09-26T17:36:28.579Z,1.80
2018-09-26T17:38:57.089Z,2.03
2018-09-26T17:41:25.571Z,2.40
2018-09-26T17:43:54.071Z,2.03
2018-09-26T17:46:22.617Z,2.37
2018-09-26T17:48:51.114Z,2.50
2018-09-26T17:51:19.621Z,3.50
2018-09-26T17:53:48.119Z,2.50
2018-09-26T17:56:16.620Z,2.97
2018-09-26T17:58:45.135Z,2.80
2018-09-26T18:01:13.646Z,3.07
2018-09-26T18:03:42.152Z,3.70
2018-09-26T18:06:10.657Z,2.97
2018-09-26T18:08:39.263Z,4.60
2018-09-26T18:11:07.884Z,4.03
2018-09-26T18:13:36.477Z,3.60
2018-09-26T18:16:05.142Z,3.30
2018-09-26T18:18:33.629Z,3.90
2018-09-26T18:21:02.129Z,3.83
2018-09-26T18:23:30.648Z,3.37
2018-09-26T18:25:59.181Z,4.07
2018-09-26T18:28:27.672Z,3.50
2018-09-26T18:30:56.167Z,3.03
2018-09-26T18:33:24.738Z,3.13
2018-09-26T18:35:53.306Z,3.70
2018-09-26T18:38:21.829Z,3.20
2018-09-26T18:40:51.454Z,3.10
2018-09-26T18:43:19.966Z,3.93
2018-09-26T18:45:48.475Z,4.40
2018-09-26T18:48:17.008Z,4.70
2018-09-26T18:50:45.536Z,4.67
2018-09-26T18:53:14.074Z,4.23
2018-09-26T18:55:42.610Z,4.83
2018-09-26T18:58:11.141Z,5.20
2018-09-26T19:00:39.684Z,4.83
2018-09-26T19:03:08.340Z,4.63
2018-09-26T19:05:36.761Z,4.53
2018-09-26T19:08:05.275Z,4.40
2018-09-26T19:10:33.781Z,4.30
2018-09-26T19:13:03.673Z,4.87
2018-09-26T19:15:33.649Z,5.13
2018-09-26T19:18:03.616Z,4.30
2018-09-26T19:20:33.559Z,5.97
2018-09-26T19:23:02.114Z,4.70
2018-09-26T19:25:32.436Z,4.73
2018-09-26T19:28:02.956Z,4.50
2018-09-26T19:30:33.187Z,4.40
2018-09-26T19:33:03.684Z,5.23
2018-09-26T19:35:33.842Z,4.97
2018-09-26T19:38:02.568Z,4.33
2018-09-26T19:40:31.331Z,3.60
2018-09-26T19:42:59.862Z,4.40
2018-09-26T19:45:28.558Z,4.53
2018-09-26T19:47:57.080Z,4.40
2018-09-26T19:50:25.915Z,4.77
2018-09-26T19:52:54.427Z,4.70
2018-09-26T19:55:23.054Z,4.10
2018-09-26T19:57:51.679Z,4.13
2018-09-26T20:00:20.268Z,5.00
2018-09-26T20:02:48.788Z,4.70
2018-09-26T20:05:17.295Z,5.50
2018-09-26T20:07:45.803Z,5.60
2018-09-26T20:10:14.371Z,5.23
2018-09-26T20:12:42.818Z,4.50
2018-09-26T20:15:11.367Z,4.30
2018-09-26T20:17:39.872Z,5.07
2018-09-26T20:20:08.441Z,5.30
2018-09-26T20:22:37.025Z,5.63
2018-09-26T20:25:05.700Z,6.60
2018-09-26T20:27:34.354Z,5.83
2018-09-26T20:30:02.785Z,6.97
2018-09-26T20:32:31.285Z,5.40
2018-09-26T20:34:59.870Z,5.47
2018-09-26T20:37:28.332Z,4.77
2018-09-26T20:39:56.888Z,4.77
2018-09-26T20:42:25.388Z,5.27
2018-09-26T20:44:53.927Z,4.67
2018-09-26T20:47:22.476Z,4.50
2018-09-26T20:49:51.231Z,4.30
2018-09-26T20:52:19.753Z,4.63
2018-09-26T20:54:48.575Z,4.73
2018-09-26T20:57:17.092Z,4.00
2018-09-26T20:59:45.604Z,4.10
2018-09-26T21:02:14.144Z,4.73
2018-09-26T21:04:42.680Z,4.83
2018-09-26T21:07:11.201Z,4.50
2018-09-26T21:09:39.740Z,3.70
2018-09-26T21:12:08.309Z,4.47
2018-09-26T21:14:36.837Z,3.60
2018-09-26T21:17:05.364Z,4.40
2018-09-26T21:19:33.880Z,4.60
2018-09-26T21:22:02.376Z,4.47
2018-09-26T21:24:30.957Z,4.40
2018-09-26T21:26:59.484Z,3.90
2018-09-26T21:29:28.020Z,3.57
2018-09-26T21:31:56.568Z,3.75
2018-09-26T21:34:25.414Z,4.00
2018-09-26T21:36:53.909Z,3.58
2018-09-26T21:39:22.455Z,3.87
2018-09-26T21:41:51.005Z,2.98
2018-09-26T21:44:19.504Z,3.52
2018-09-26T21:46:47.992Z,3.50
2018-09-26T21:49:16.516Z,4.03
2018-09-26T21:51:45.081Z,3.12
2018-09-26T21:54:13.585Z,3.90
2018-09-26T21:56:42.103Z,3.67
2018-09-26T21:59:10.628Z,3.95
2018-09-26T22:01:39.128Z,3.10
2018-09-26T22:04:07.777Z,5.05
2018-09-26T22:06:36.341Z,5.40
2018-09-26T22:09:06.697Z,3.83
2018-09-26T22:11:35.239Z,5.50
2018-09-26T22:14:03.799Z,6.92
2018-09-26T22:16:32.301Z,5.85
2018-09-26T22:19:00.857Z,5.50
2018-09-26T22:21:29.369Z,6.00
2018-09-26T22:23:57.881Z,5.70
2018-09-26T22:26:26.497Z,6.45
2018-09-26T22:28:54.985Z,5.30
2018-09-26T22:31:23.590Z,5.03
2018-09-26T22:33:52.020Z,5.22
2018-09-26T22:36:20.540Z,4.55
2018-09-26T22:38:49.070Z,3.90
2018-09-26T22:41:17.556Z,4.70
2018-09-26T22:43:47.913Z,4.42
2018-09-26T22:46:16.387Z,4.97
2018-09-26T22:48:44.907Z,4.37
2018-09-26T22:51:13.429Z,4.92
2018-09-26T22:53:41.963Z,4.35
2018-09-26T22:56:10.489Z,6.05
2018-09-26T22:58:38.979Z,5.85
2018-09-26T23:01:07.472Z,5.40
2018-09-26T23:03:35.966Z,5.75
2018-09-26T23:06:04.470Z,5.70
2018-09-26T23:08:39.280Z,6.70
2018-09-26T23:11:07.788Z,6.05
2018-09-26T23:13:36.576Z,5.12
2018-09-26T23:16:05.172Z,4.75
2018-09-26T23:18:33.685Z,5.42
2018-09-26T23:21:02.257Z,5.10
2018-09-26T23:23:30.993Z,4.60
2018-09-26T23:25:59.500Z,4.10
2018-09-26T23:28:28.024Z,4.80
2018-09-26T23:30:56.491Z,4.58
2018-09-26T23:33:25.014Z,4.60
2018-09-26T23:35:53.507Z,5.08
2018-09-26T23:38:22.048Z,5.90
2018-09-26T23:40:50.564Z,4.97
2018-09-26T23:43:19.064Z,4.40
2018-09-26T23:45:47.565Z,4.55
2018-09-26T23:48:16.071Z,5.85
2018-09-26T23:50:44.552Z,3.98
2018-09-26T23:53:13.067Z,3.77
2018-09-26T23:55:41.581Z,3.50
2018-09-26T23:58:10.105Z,4.25
